sensor_id;sensor_type;location;lat;lon;timestamp;temperature;humidity
70676;DHT22;59069;52.242;20.900;2022-08-19T00:01:43;24.32;65.27
70676;DHT22;59069;52.242;20.900;2022-08-19T00:04:10;24.29;65.37
70676;DHT22;59069;52.242;20.900;2022-08-19T00:06:38;24.25;65.49
70676;DHT22;59069;52.242;20.900;2022-08-19T00:09:06;24.25;65.60
70676;DHT22;59069;52.242;20.900;2022-08-19T00:11:32;24.20;65.70
70676;DHT22;59069;52.242;20.900;2022-08-19T00:13:58;24.18;65.81
70676;DHT22;59069;52.242;20.900;2022-08-19T00:16:25;24.13;65.91
70676;DHT22;59069;52.242;20.900;2022-08-19T00:18:51;24.10;66.02
70676;DHT22;59069;52.242;20.900;2022-08-19T00:21:16;24.08;66.15
70676;DHT22;59069;52.242;20.900;2022-08-19T00:23:42;24.07;66.29
70676;DHT22;59069;52.242;20.900;2022-08-19T00:26:09;24.06;66.42
70676;DHT22;59069;52.242;20.900;2022-08-19T00:28:34;24.01;66.59
70676;DHT22;59069;52.242;20.900;2022-08-19T00:31:01;23.98;66.68
70676;DHT22;59069;52.242;20.900;2022-08-19T00:33:28;23.94;66.77
70676;DHT22;59069;52.242;20.900;2022-08-19T00:35:58;23.92;66.94
70676;DHT22;59069;52.242;20.900;2022-08-19T00:38:23;23.90;67.01
70676;DHT22;59069;52.242;20.900;2022-08-19T00:40:48;23.87;67.09
70676;DHT22;59069;52.242;20.900;2022-08-19T00:43:19;23.84;67.25
70676;DHT22;59069;52.242;20.900;2022-08-19T00:45:45;23.80;67.30
70676;DHT22;59069;52.242;20.900;2022-08-19T00:48:11;23.80;67.35
70676;DHT22;59069;52.242;20.900;2022-08-19T00:50:39;23.79;67.36
70676;DHT22;59069;52.242;20.900;2022-08-19T00:53:06;23.76;67.40
70676;DHT22;59069;52.242;20.900;2022-08-19T00:55:32;23.76;67.50
70676;DHT22;59069;52.242;20.900;2022-08-19T00:58:04;23.74;67.53
70676;DHT22;59069;52.242;20.900;2022-08-19T01:00:31;23.73;67.56
70676;DHT22;59069;52.242;20.900;2022-08-19T01:03:02;23.73;67.56
70676;DHT22;59069;52.242;20.900;2022-08-19T01:05:28;23.71;67.63
70676;DHT22;59069;52.242;20.900;2022-08-19T01:07:59;23.69;67.64
70676;DHT22;59069;52.242;20.900;2022-08-19T01:10:29;23.67;67.78
70676;DHT22;59069;52.242;20.900;2022-08-19T01:12:58;23.66;67.82
70676;DHT22;59069;52.242;20.900;2022-08-19T01:15:40;23.65;67.84
70676;DHT22;59069;52.242;20.900;2022-08-19T01:18:10;23.63;67.91
70676;DHT22;59069;52.242;20.900;2022-08-19T01:20:37;23.62;67.99
70676;DHT22;59069;52.242;20.900;2022-08-19T01:23:02;23.60;68.01
70676;DHT22;59069;52.242;20.900;2022-08-19T01:25:32;23.59;68.08
70676;DHT22;59069;52.242;20.900;2022-08-19T01:28:00;23.59;68.13
70676;DHT22;59069;52.242;20.900;2022-08-19T01:30:30;23.57;68.17
70676;DHT22;59069;52.242;20.900;2022-08-19T01:32:57;23.55;68.22
70676;DHT22;59069;52.242;20.900;2022-08-19T01:35:26;23.53;68.29
70676;DHT22;59069;52.242;20.900;2022-08-19T01:38:02;23.53;68.29
70676;DHT22;59069;52.242;20.900;2022-08-19T01:40:32;23.52;68.32
70676;DHT22;59069;52.242;20.900;2022-08-19T01:42:59;23.52;68.39
70676;DHT22;59069;52.242;20.900;2022-08-19T01:45:26;23.49;68.42
70676;DHT22;59069;52.242;20.900;2022-08-19T01:47:52;23.47;68.48
70676;DHT22;59069;52.242;20.900;2022-08-19T01:50:18;23.49;68.50
70676;DHT22;59069;52.242;20.900;2022-08-19T01:52:44;23.46;68.60
70676;DHT22;59069;52.242;20.900;2022-08-19T01:55:13;23.45;68.67
70676;DHT22;59069;52.242;20.900;2022-08-19T01:57:41;23.42;68.81
70676;DHT22;59069;52.242;20.900;2022-08-19T02:00:11;23.42;68.86
70676;DHT22;59069;52.242;20.900;2022-08-19T02:02:37;23.39;69.00
70676;DHT22;59069;52.242;20.900;2022-08-19T02:05:04;23.41;69.05
70676;DHT22;59069;52.242;20.900;2022-08-19T02:07:29;23.36;69.00
70676;DHT22;59069;52.242;20.900;2022-08-19T02:09:55;23.38;68.97
70676;DHT22;59069;52.242;20.900;2022-08-19T02:12:21;23.38;69.00
70676;DHT22;59069;52.242;20.900;2022-08-19T02:14:47;23.38;69.08
70676;DHT22;59069;52.242;20.900;2022-08-19T02:17:12;23.38;69.04
70676;DHT22;59069;52.242;20.900;2022-08-19T02:19:38;23.35;69.07
70676;DHT22;59069;52.242;20.900;2022-08-19T02:22:03;23.32;69.04
70676;DHT22;59069;52.242;20.900;2022-08-19T02:24:29;23.32;69.11
70676;DHT22;59069;52.242;20.900;2022-08-19T02:26:54;23.33;69.16
70676;DHT22;59069;52.242;20.900;2022-08-19T02:29:20;23.28;69.20
70676;DHT22;59069;52.242;20.900;2022-08-19T02:31:46;23.25;69.27
70676;DHT22;59069;52.242;20.900;2022-08-19T02:34:11;23.25;69.30
70676;DHT22;59069;52.242;20.900;2022-08-19T02:36:37;23.22;69.30
70676;DHT22;59069;52.242;20.900;2022-08-19T02:39:02;23.19;69.31
70676;DHT22;59069;52.242;20.900;2022-08-19T02:41:31;23.20;69.32
70676;DHT22;59069;52.242;20.900;2022-08-19T02:44:00;23.18;69.35
70676;DHT22;59069;52.242;20.900;2022-08-19T02:46:28;23.20;69.43
70676;DHT22;59069;52.242;20.900;2022-08-19T02:49:04;23.18;69.39
70676;DHT22;59069;52.242;20.900;2022-08-19T02:51:35;23.16;69.39
70676;DHT22;59069;52.242;20.900;2022-08-19T02:54:01;23.16;69.35
70676;DHT22;59069;52.242;20.900;2022-08-19T02:56:27;23.16;69.42
70676;DHT22;59069;52.242;20.900;2022-08-19T02:58:56;23.14;69.44
70676;DHT22;59069;52.242;20.900;2022-08-19T03:01:30;23.14;69.48
70676;DHT22;59069;52.242;20.900;2022-08-19T03:03:58;23.09;69.55
70676;DHT22;59069;52.242;20.900;2022-08-19T03:06:24;23.08;69.59
70676;DHT22;59069;52.242;20.900;2022-08-19T03:08:50;23.09;69.60
70676;DHT22;59069;52.242;20.900;2022-08-19T03:11:20;23.06;69.56
70676;DHT22;59069;52.242;20.900;2022-08-19T03:13:46;23.04;69.62
70676;DHT22;59069;52.242;20.900;2022-08-19T03:16:14;23.04;69.69
70676;DHT22;59069;52.242;20.900;2022-08-19T03:18:40;23.04;69.62
70676;DHT22;59069;52.242;20.900;2022-08-19T03:21:06;23.04;69.70
70676;DHT22;59069;52.242;20.900;2022-08-19T03:23:31;22.99;69.81
70676;DHT22;59069;52.242;20.900;2022-08-19T03:25:57;22.99;69.78
70676;DHT22;59069;52.242;20.900;2022-08-19T03:28:22;22.98;69.83
70676;DHT22;59069;52.242;20.900;2022-08-19T03:31:00;22.98;69.88
70676;DHT22;59069;52.242;20.900;2022-08-19T03:33:27;22.95;69.94
70676;DHT22;59069;52.242;20.900;2022-08-19T03:36:12;22.95;70.01
70676;DHT22;59069;52.242;20.900;2022-08-19T03:38:43;22.95;70.03
70676;DHT22;59069;52.242;20.900;2022-08-19T03:41:15;22.95;70.03
70676;DHT22;59069;52.242;20.900;2022-08-19T03:43:42;22.98;70.07
70676;DHT22;59069;52.242;20.900;2022-08-19T03:46:11;22.94;70.10
70676;DHT22;59069;52.242;20.900;2022-08-19T03:48:38;22.94;70.16
70676;DHT22;59069;52.242;20.900;2022-08-19T03:51:05;22.95;70.25
70676;DHT22;59069;52.242;20.900;2022-08-19T03:53:31;22.95;70.28
70676;DHT22;59069;52.242;20.900;2022-08-19T03:55:58;22.95;70.34
70676;DHT22;59069;52.242;20.900;2022-08-19T03:58:28;22.97;70.29
70676;DHT22;59069;52.242;20.900;2022-08-19T04:00:55;23.01;70.23
70676;DHT22;59069;52.242;20.900;2022-08-19T04:03:22;23.01;70.20
70676;DHT22;59069;52.242;20.900;2022-08-19T04:05:47;23.08;70.22
70676;DHT22;59069;52.242;20.900;2022-08-19T04:08:14;23.08;70.12
70676;DHT22;59069;52.242;20.900;2022-08-19T04:10:40;23.12;70.01
70676;DHT22;59069;52.242;20.900;2022-08-19T04:13:07;23.15;69.88
70676;DHT22;59069;52.242;20.900;2022-08-19T04:15:39;23.18;69.87
70676;DHT22;59069;52.242;20.900;2022-08-19T04:18:07;23.16;69.83
70676;DHT22;59069;52.242;20.900;2022-08-19T04:20:43;23.23;69.72
70676;DHT22;59069;52.242;20.900;2022-08-19T04:23:08;23.25;69.70
70676;DHT22;59069;52.242;20.900;2022-08-19T04:25:39;23.32;69.56
70676;DHT22;59069;52.242;20.900;2022-08-19T04:28:05;23.38;69.49
70676;DHT22;59069;52.242;20.900;2022-08-19T04:30:30;23.45;69.34
70676;DHT22;59069;52.242;20.900;2022-08-19T04:32:56;23.47;69.14
70676;DHT22;59069;52.242;20.900;2022-08-19T04:35:21;23.52;69.02
70676;DHT22;59069;52.242;20.900;2022-08-19T04:37:46;23.57;68.96
70676;DHT22;59069;52.242;20.900;2022-08-19T04:40:12;23.62;68.82
70676;DHT22;59069;52.242;20.900;2022-08-19T04:42:56;23.67;68.53
70676;DHT22;59069;52.242;20.900;2022-08-19T04:45:21;23.71;68.40
70676;DHT22;59069;52.242;20.900;2022-08-19T04:47:47;23.79;68.24
70676;DHT22;59069;52.242;20.900;2022-08-19T04:50:13;23.81;68.08
70676;DHT22;59069;52.242;20.900;2022-08-19T04:52:39;23.88;67.93
70676;DHT22;59069;52.242;20.900;2022-08-19T04:55:09;23.96;67.77
70676;DHT22;59069;52.242;20.900;2022-08-19T04:57:36;24.00;67.54
70676;DHT22;59069;52.242;20.900;2022-08-19T05:00:06;24.00;67.32
70676;DHT22;59069;52.242;20.900;2022-08-19T05:02:32;24.00;67.16
70676;DHT22;59069;52.242;20.900;2022-08-19T05:04:58;24.00;67.20
70676;DHT22;59069;52.242;20.900;2022-08-19T05:07:25;23.96;67.29
70676;DHT22;59069;52.242;20.900;2022-08-19T05:09:51;23.98;67.29
70676;DHT22;59069;52.242;20.900;2022-08-19T05:12:17;23.97;67.25
70676;DHT22;59069;52.242;20.900;2022-08-19T05:14:43;23.94;67.28
70676;DHT22;59069;52.242;20.900;2022-08-19T05:17:10;23.97;67.28
70676;DHT22;59069;52.242;20.900;2022-08-19T05:19:35;23.97;67.25
70676;DHT22;59069;52.242;20.900;2022-08-19T05:22:19;23.93;67.35
70676;DHT22;59069;52.242;20.900;2022-08-19T05:24:57;23.96;67.47
70676;DHT22;59069;52.242;20.900;2022-08-19T05:27:22;24.03;67.55
70676;DHT22;59069;52.242;20.900;2022-08-19T05:29:48;24.11;67.67
70676;DHT22;59069;52.242;20.900;2022-08-19T05:32:13;24.20;67.43
70676;DHT22;59069;52.242;20.900;2022-08-19T05:34:39;24.27;67.10
70676;DHT22;59069;52.242;20.900;2022-08-19T05:37:05;24.38;67.00
70676;DHT22;59069;52.242;20.900;2022-08-19T05:39:34;24.48;66.69
70676;DHT22;59069;52.242;20.900;2022-08-19T05:42:03;24.57;66.46
70676;DHT22;59069;52.242;20.900;2022-08-19T05:44:30;24.67;66.38
70676;DHT22;59069;52.242;20.900;2022-08-19T05:46:57;24.73;66.22
70676;DHT22;59069;52.242;20.900;2022-08-19T05:49:24;24.80;66.02
70676;DHT22;59069;52.242;20.900;2022-08-19T05:51:51;24.89;65.66
70676;DHT22;59069;52.242;20.900;2022-08-19T05:54:17;24.93;65.28
70676;DHT22;59069;52.242;20.900;2022-08-19T05:56:43;24.98;65.03
70676;DHT22;59069;52.242;20.900;2022-08-19T05:59:10;25.08;64.88
70676;DHT22;59069;52.242;20.900;2022-08-19T06:01:42;25.15;64.72
70676;DHT22;59069;52.242;20.900;2022-08-19T06:04:08;25.23;64.68
70676;DHT22;59069;52.242;20.900;2022-08-19T06:06:34;25.31;64.60
70676;DHT22;59069;52.242;20.900;2022-08-19T06:09:04;25.41;64.14
70676;DHT22;59069;52.242;20.900;2022-08-19T06:11:42;25.44;63.87
70676;DHT22;59069;52.242;20.900;2022-08-19T06:14:15;25.54;63.55
70676;DHT22;59069;52.242;20.900;2022-08-19T06:16:41;25.63;63.22
70676;DHT22;59069;52.242;20.900;2022-08-19T06:19:11;25.73;62.95
70676;DHT22;59069;52.242;20.900;2022-08-19T06:21:38;25.78;62.73
70676;DHT22;59069;52.242;20.900;2022-08-19T06:24:09;25.88;62.26
70676;DHT22;59069;52.242;20.900;2022-08-19T06:26:37;25.92;61.88
70676;DHT22;59069;52.242;20.900;2022-08-19T06:29:07;26.00;61.75
70676;DHT22;59069;52.242;20.900;2022-08-19T06:31:34;26.09;61.65
70676;DHT22;59069;52.242;20.900;2022-08-19T06:34:04;26.19;61.59
70676;DHT22;59069;52.242;20.900;2022-08-19T06:36:33;26.35;61.26
70676;DHT22;59069;52.242;20.900;2022-08-19T06:39:08;26.48;61.00
70676;DHT22;59069;52.242;20.900;2022-08-19T06:41:36;26.64;60.53
70676;DHT22;59069;52.242;20.900;2022-08-19T06:44:03;26.79;59.99
70676;DHT22;59069;52.242;20.900;2022-08-19T06:46:29;26.91;59.44
70676;DHT22;59069;52.242;20.900;2022-08-19T06:48:55;26.94;58.86
70676;DHT22;59069;52.242;20.900;2022-08-19T06:51:22;26.91;58.72
70676;DHT22;59069;52.242;20.900;2022-08-19T06:53:50;26.87;58.85
70676;DHT22;59069;52.242;20.900;2022-08-19T06:56:21;26.84;59.28
70676;DHT22;59069;52.242;20.900;2022-08-19T06:58:47;26.91;59.76
70676;DHT22;59069;52.242;20.900;2022-08-19T07:01:16;27.04;59.47
70676;DHT22;59069;52.242;20.900;2022-08-19T07:03:41;27.03;58.75
70676;DHT22;59069;52.242;20.900;2022-08-19T07:06:09;27.00;58.69
70676;DHT22;59069;52.242;20.900;2022-08-19T07:08:35;26.94;58.80
70676;DHT22;59069;52.242;20.900;2022-08-19T07:11:06;26.93;59.11
70676;DHT22;59069;52.242;20.900;2022-08-19T07:13:32;27.00;59.17
70676;DHT22;59069;52.242;20.900;2022-08-19T07:16:10;27.08;59.05
70676;DHT22;59069;52.242;20.900;2022-08-19T07:18:36;27.18;58.86
70676;DHT22;59069;52.242;20.900;2022-08-19T07:21:05;27.30;58.34
70676;DHT22;59069;52.242;20.900;2022-08-19T07:23:31;27.42;57.96
70676;DHT22;59069;52.242;20.900;2022-08-19T07:25:57;27.52;57.82
70676;DHT22;59069;52.242;20.900;2022-08-19T07:28:22;27.65;57.89
70676;DHT22;59069;52.242;20.900;2022-08-19T07:30:48;27.81;57.71
70676;DHT22;59069;52.242;20.900;2022-08-19T07:33:15;27.95;57.23
70676;DHT22;59069;52.242;20.900;2022-08-19T07:35:41;28.12;56.68
70676;DHT22;59069;52.242;20.900;2022-08-19T07:38:07;28.27;56.50
70676;DHT22;59069;52.242;20.900;2022-08-19T07:40:32;28.37;55.98
70676;DHT22;59069;52.242;20.900;2022-08-19T07:42:59;28.54;55.78
70676;DHT22;59069;52.242;20.900;2022-08-19T07:45:24;28.68;55.32
70676;DHT22;59069;52.242;20.900;2022-08-19T07:47:50;28.77;55.22
70676;DHT22;59069;52.242;20.900;2022-08-19T07:50:16;28.80;54.82
70676;DHT22;59069;52.242;20.900;2022-08-19T07:52:43;28.86;55.00
70676;DHT22;59069;52.242;20.900;2022-08-19T07:55:29;28.93;54.82
70676;DHT22;59069;52.242;20.900;2022-08-19T07:57:55;28.95;54.76
70676;DHT22;59069;52.242;20.900;2022-08-19T08:00:20;29.00;54.89
70676;DHT22;59069;52.242;20.900;2022-08-19T08:02:46;29.08;55.43
70676;DHT22;59069;52.242;20.900;2022-08-19T08:05:11;29.15;56.12
70676;DHT22;59069;52.242;20.900;2022-08-19T08:07:59;29.38;56.55
70676;DHT22;59069;52.242;20.900;2022-08-19T08:10:43;29.61;55.33
70676;DHT22;59069;52.242;20.900;2022-08-19T08:13:09;29.87;54.99
70676;DHT22;59069;52.242;20.900;2022-08-19T08:15:35;30.37;54.27
70676;DHT22;59069;52.242;20.900;2022-08-19T08:18:02;30.94;52.34
70676;DHT22;59069;52.242;20.900;2022-08-19T08:20:28;31.51;50.08
70676;DHT22;59069;52.242;20.900;2022-08-19T08:22:53;31.96;47.92
70676;DHT22;59069;52.242;20.900;2022-08-19T08:25:37;32.49;47.05
70676;DHT22;59069;52.242;20.900;2022-08-19T08:28:04;32.93;46.07
70676;DHT22;59069;52.242;20.900;2022-08-19T08:30:30;33.39;44.82
70676;DHT22;59069;52.242;20.900;2022-08-19T08:32:58;33.87;43.30
70676;DHT22;59069;52.242;20.900;2022-08-19T08:35:24;34.18;42.12
70676;DHT22;59069;52.242;20.900;2022-08-19T08:37:52;34.52;42.32
70676;DHT22;59069;52.242;20.900;2022-08-19T08:42:57;35.26;40.84
70676;DHT22;59069;52.242;20.900;2022-08-19T08:45:27;35.77;39.65
70676;DHT22;59069;52.242;20.900;2022-08-19T08:47:56;36.28;38.32
70676;DHT22;59069;52.242;20.900;2022-08-19T08:50:39;36.57;38.36
70676;DHT22;59069;52.242;20.900;2022-08-19T08:53:07;36.57;37.13
70676;DHT22;59069;52.242;20.900;2022-08-19T08:55:34;36.39;36.86
70676;DHT22;59069;52.242;20.900;2022-08-19T09:00:34;35.82;37.96
70676;DHT22;59069;52.242;20.900;2022-08-19T09:03:02;35.41;38.94
70676;DHT22;59069;52.242;20.900;2022-08-19T09:16:50;34.79;40.94
70676;DHT22;59069;52.242;20.900;2022-08-19T09:19:17;34.57;40.30
70676;DHT22;59069;52.242;20.900;2022-08-19T09:21:43;34.41;40.97
70676;DHT22;59069;52.242;20.900;2022-08-19T09:24:08;34.29;41.30
70676;DHT22;59069;52.242;20.900;2022-08-19T09:26:34;34.15;40.62
70676;DHT22;59069;52.242;20.900;2022-08-19T09:29:00;33.81;40.85
70676;DHT22;59069;52.242;20.900;2022-08-19T09:31:28;33.56;41.19
70676;DHT22;59069;52.242;20.900;2022-08-19T09:33:54;33.51;41.35
70676;DHT22;59069;52.242;20.900;2022-08-19T09:36:24;33.50;41.65
70676;DHT22;59069;52.242;20.900;2022-08-19T09:38:52;33.53;42.67
70676;DHT22;59069;52.242;20.900;2022-08-19T09:41:21;33.43;41.38
70676;DHT22;59069;52.242;20.900;2022-08-19T09:43:49;33.15;41.88
70676;DHT22;59069;52.242;20.900;2022-08-19T09:46:18;32.95;42.77
70676;DHT22;59069;52.242;20.900;2022-08-19T09:48:44;32.82;43.49
70676;DHT22;59069;52.242;20.900;2022-08-19T09:51:12;32.95;44.26
70676;DHT22;59069;52.242;20.900;2022-08-19T09:53:40;33.12;42.76
70676;DHT22;59069;52.242;20.900;2022-08-19T09:56:06;33.25;42.42
70676;DHT22;59069;52.242;20.900;2022-08-19T09:58:32;33.16;42.53
70676;DHT22;59069;52.242;20.900;2022-08-19T10:01:00;33.00;42.96
70676;DHT22;59069;52.242;20.900;2022-08-19T10:03:28;32.95;43.64
70676;DHT22;59069;52.242;20.900;2022-08-19T10:05:54;32.85;44.18
70676;DHT22;59069;52.242;20.900;2022-08-19T10:08:22;32.75;43.67
70676;DHT22;59069;52.242;20.900;2022-08-19T10:10:48;32.59;43.26
70676;DHT22;59069;52.242;20.900;2022-08-19T10:13:16;32.32;43.57
70676;DHT22;59069;52.242;20.900;2022-08-19T10:15:42;32.17;43.78
70676;DHT22;59069;52.242;20.900;2022-08-19T10:18:08;32.01;44.60
70676;DHT22;59069;52.242;20.900;2022-08-19T10:20:33;31.97;45.14
70676;DHT22;59069;52.242;20.900;2022-08-19T10:23:01;31.94;45.68
70676;DHT22;59069;52.242;20.900;2022-08-19T10:25:26;31.93;45.76
70676;DHT22;59069;52.242;20.900;2022-08-19T10:27:52;31.93;45.67
70676;DHT22;59069;52.242;20.900;2022-08-19T10:30:18;31.96;45.51
70676;DHT22;59069;52.242;20.900;2022-08-19T10:32:44;31.97;45.30
70676;DHT22;59069;52.242;20.900;2022-08-19T10:35:11;31.93;45.24
70676;DHT22;59069;52.242;20.900;2022-08-19T10:37:38;31.96;44.47
70676;DHT22;59069;52.242;20.900;2022-08-19T10:40:06;31.88;43.95
70676;DHT22;59069;52.242;20.900;2022-08-19T10:42:33;32.01;44.06
70676;DHT22;59069;52.242;20.900;2022-08-19T10:44:59;32.05;43.85
70676;DHT22;59069;52.242;20.900;2022-08-19T10:47:25;32.13;43.93
70676;DHT22;59069;52.242;20.900;2022-08-19T10:49:51;32.15;43.83
70676;DHT22;59069;52.242;20.900;2022-08-19T10:52:35;32.23;43.80
70676;DHT22;59069;52.242;20.900;2022-08-19T10:55:02;32.39;43.93
70676;DHT22;59069;52.242;20.900;2022-08-19T10:57:46;32.56;42.92
70676;DHT22;59069;52.242;20.900;2022-08-19T11:00:12;32.64;42.19
70676;DHT22;59069;52.242;20.900;2022-08-19T11:02:38;32.65;41.99
70676;DHT22;59069;52.242;20.900;2022-08-19T11:05:04;32.61;42.59
70676;DHT22;59069;52.242;20.900;2022-08-19T11:07:30;32.48;42.05
70676;DHT22;59069;52.242;20.900;2022-08-19T11:09:56;32.44;42.02
70676;DHT22;59069;52.242;20.900;2022-08-19T11:12:21;32.45;42.87
70676;DHT22;59069;52.242;20.900;2022-08-19T11:14:46;32.65;42.35
70676;DHT22;59069;52.242;20.900;2022-08-19T11:17:15;32.80;42.60
70676;DHT22;59069;52.242;20.900;2022-08-19T11:19:42;33.05;42.14
70676;DHT22;59069;52.242;20.900;2022-08-19T11:22:08;33.17;40.79
70676;DHT22;59069;52.242;20.900;2022-08-19T11:24:35;33.29;40.63
70676;DHT22;59069;52.242;20.900;2022-08-19T11:27:04;33.47;41.14
70676;DHT22;59069;52.242;20.900;2022-08-19T11:29:31;33.57;40.40
70676;DHT22;59069;52.242;20.900;2022-08-19T11:31:57;33.53;40.96
70676;DHT22;59069;52.242;20.900;2022-08-19T11:34:24;33.53;41.16
70676;DHT22;59069;52.242;20.900;2022-08-19T11:36:52;33.56;41.59
70676;DHT22;59069;52.242;20.900;2022-08-19T11:39:21;33.73;41.61
70676;DHT22;59069;52.242;20.900;2022-08-19T11:41:47;33.73;40.70
70676;DHT22;59069;52.242;20.900;2022-08-19T11:44:13;33.80;41.07
70676;DHT22;59069;52.242;20.900;2022-08-19T11:46:40;33.82;41.04
70676;DHT22;59069;52.242;20.900;2022-08-19T11:49:06;33.77;41.29
70676;DHT22;59069;52.242;20.900;2022-08-19T11:51:33;33.71;41.17
70676;DHT22;59069;52.242;20.900;2022-08-19T11:53:59;33.66;41.08
70676;DHT22;59069;52.242;20.900;2022-08-19T11:56:26;33.73;41.01
70676;DHT22;59069;52.242;20.900;2022-08-19T11:58:52;33.74;40.61
70676;DHT22;59069;52.242;20.900;2022-08-19T12:01:19;33.70;40.31
70676;DHT22;59069;52.242;20.900;2022-08-19T12:03:47;33.67;40.41
70676;DHT22;59069;52.242;20.900;2022-08-19T12:06:15;33.53;40.78
70676;DHT22;59069;52.242;20.900;2022-08-19T12:08:41;33.50;40.41
70676;DHT22;59069;52.242;20.900;2022-08-19T12:11:09;33.42;40.26
70676;DHT22;59069;52.242;20.900;2022-08-19T12:13:35;33.42;40.28
70676;DHT22;59069;52.242;20.900;2022-08-19T12:16:00;33.44;40.76
70676;DHT22;59069;52.242;20.900;2022-08-19T12:18:27;33.50;40.74
70676;DHT22;59069;52.242;20.900;2022-08-19T12:20:53;33.51;40.91
70676;DHT22;59069;52.242;20.900;2022-08-19T12:23:20;33.50;40.47
70676;DHT22;59069;52.242;20.900;2022-08-19T12:25:47;33.57;40.85
70676;DHT22;59069;52.242;20.900;2022-08-19T12:28:20;33.66;40.76
70676;DHT22;59069;52.242;20.900;2022-08-19T12:30:47;33.75;40.50
70676;DHT22;59069;52.242;20.900;2022-08-19T12:33:13;33.87;40.90
70676;DHT22;59069;52.242;20.900;2022-08-19T12:35:42;34.05;40.58
70676;DHT22;59069;52.242;20.900;2022-08-19T12:38:09;34.09;39.14
70676;DHT22;59069;52.242;20.900;2022-08-19T12:40:35;34.19;39.22
70676;DHT22;59069;52.242;20.900;2022-08-19T12:43:00;34.49;39.25
70676;DHT22;59069;52.242;20.900;2022-08-19T12:45:25;34.86;38.96
70676;DHT22;59069;52.242;20.900;2022-08-19T12:47:51;35.31;38.83
70676;DHT22;59069;52.242;20.900;2022-08-19T12:50:21;35.78;37.39
70676;DHT22;59069;52.242;20.900;2022-08-19T12:52:53;36.09;36.07
70676;DHT22;59069;52.242;20.900;2022-08-19T12:55:18;36.66;36.39
70676;DHT22;59069;52.242;20.900;2022-08-19T12:57:44;37.30;34.31
70676;DHT22;59069;52.242;20.900;2022-08-19T13:00:13;38.17;33.87
70676;DHT22;59069;52.242;20.900;2022-08-19T13:02:41;39.27;32.08
70676;DHT22;59069;52.242;20.900;2022-08-19T13:05:10;40.32;30.41
70676;DHT22;59069;52.242;20.900;2022-08-19T13:07:38;40.90;29.20
70676;DHT22;59069;52.242;20.900;2022-08-19T13:10:06;41.68;28.40
70676;DHT22;59069;52.242;20.900;2022-08-19T13:12:31;42.44;27.10
70676;DHT22;59069;52.242;20.900;2022-08-19T13:14:57;43.08;26.12
70676;DHT22;59069;52.242;20.900;2022-08-19T13:17:22;43.63;25.36
70676;DHT22;59069;52.242;20.900;2022-08-19T13:19:48;44.07;24.86
70676;DHT22;59069;52.242;20.900;2022-08-19T13:22:14;44.39;24.39
70676;DHT22;59069;52.242;20.900;2022-08-19T13:24:39;44.78;23.93
70676;DHT22;59069;52.242;20.900;2022-08-19T13:27:05;44.94;23.75
70676;DHT22;59069;52.242;20.900;2022-08-19T13:29:32;45.12;23.60
70676;DHT22;59069;52.242;20.900;2022-08-19T13:32:15;45.53;23.39
70676;DHT22;59069;52.242;20.900;2022-08-19T13:35:07;45.86;22.85
70676;DHT22;59069;52.242;20.900;2022-08-19T13:37:33;45.81;22.73
70676;DHT22;59069;52.242;20.900;2022-08-19T13:40:19;46.00;22.72
70676;DHT22;59069;52.242;20.900;2022-08-19T13:42:48;46.03;22.33
70676;DHT22;59069;52.242;20.900;2022-08-19T13:45:16;45.63;22.39
70676;DHT22;59069;52.242;20.900;2022-08-19T13:47:46;45.27;23.04
70676;DHT22;59069;52.242;20.900;2022-08-19T13:50:14;44.99;23.34
70676;DHT22;59069;52.242;20.900;2022-08-19T13:52:40;45.05;23.45
70676;DHT22;59069;52.242;20.900;2022-08-19T13:55:06;44.99;23.50
70676;DHT22;59069;52.242;20.900;2022-08-19T13:57:32;44.86;23.60
70676;DHT22;59069;52.242;20.900;2022-08-19T13:59:58;44.92;23.34
70676;DHT22;59069;52.242;20.900;2022-08-19T14:02:24;44.98;22.87
70676;DHT22;59069;52.242;20.900;2022-08-19T14:04:50;45.01;23.07
70676;DHT22;59069;52.242;20.900;2022-08-19T14:07:15;44.98;22.66
70676;DHT22;59069;52.242;20.900;2022-08-19T14:09:40;44.94;23.04
70676;DHT22;59069;52.242;20.900;2022-08-19T14:12:06;45.15;22.68
70676;DHT22;59069;52.242;20.900;2022-08-19T14:14:32;45.06;22.74
70676;DHT22;59069;52.242;20.900;2022-08-19T14:16:57;44.80;22.89
70676;DHT22;59069;52.242;20.900;2022-08-19T14:19:23;44.58;22.87
70676;DHT22;59069;52.242;20.900;2022-08-19T14:21:48;44.51;23.20
70676;DHT22;59069;52.242;20.900;2022-08-19T14:24:13;44.37;23.46
70676;DHT22;59069;52.242;20.900;2022-08-19T14:26:39;44.20;23.50
70676;DHT22;59069;52.242;20.900;2022-08-19T14:29:04;44.21;23.41
70676;DHT22;59069;52.242;20.900;2022-08-19T14:31:29;44.20;23.21
70676;DHT22;59069;52.242;20.900;2022-08-19T14:33:55;43.90;23.51
70676;DHT22;59069;52.242;20.900;2022-08-19T14:36:20;43.73;23.75
70676;DHT22;59069;52.242;20.900;2022-08-19T14:38:47;43.63;23.86
70676;DHT22;59069;52.242;20.900;2022-08-19T14:41:17;43.50;23.76
70676;DHT22;59069;52.242;20.900;2022-08-19T14:43:45;43.03;24.08
70676;DHT22;59069;52.242;20.900;2022-08-19T14:46:13;42.59;24.52
70676;DHT22;59069;52.242;20.900;2022-08-19T14:48:40;42.27;24.93
70676;DHT22;59069;52.242;20.900;2022-08-19T14:51:06;42.27;25.15
70676;DHT22;59069;52.242;20.900;2022-08-19T14:53:31;42.19;24.70
70676;DHT22;59069;52.242;20.900;2022-08-19T14:55:59;42.07;24.99
70676;DHT22;59069;52.242;20.900;2022-08-19T14:58:24;42.04;24.87
70676;DHT22;59069;52.242;20.900;2022-08-19T15:00:50;41.58;24.93
70676;DHT22;59069;52.242;20.900;2022-08-19T15:03:15;41.62;25.34
70676;DHT22;59069;52.242;20.900;2022-08-19T15:05:40;41.56;25.48
70676;DHT22;59069;52.242;20.900;2022-08-19T15:08:06;41.53;25.59
70676;DHT22;59069;52.242;20.900;2022-08-19T15:10:31;41.48;25.45
70676;DHT22;59069;52.242;20.900;2022-08-19T15:12:57;41.49;25.57
70676;DHT22;59069;52.242;20.900;2022-08-19T15:15:22;41.22;25.34
70676;DHT22;59069;52.242;20.900;2022-08-19T15:17:48;40.95;25.56
70676;DHT22;59069;52.242;20.900;2022-08-19T15:20:16;40.71;25.91
70676;DHT22;59069;52.242;20.900;2022-08-19T15:22:42;40.60;25.85
70676;DHT22;59069;52.242;20.900;2022-08-19T15:25:10;40.37;25.88
70676;DHT22;59069;52.242;20.900;2022-08-19T15:27:35;40.06;26.00
70676;DHT22;59069;52.242;20.900;2022-08-19T15:30:02;39.84;26.42
70676;DHT22;59069;52.242;20.900;2022-08-19T15:32:29;39.84;26.51
70676;DHT22;59069;52.242;20.900;2022-08-19T15:34:54;39.86;26.46